sensor_id;sensor_type;location;lat;lon;timestamp;temperature;humidity
11136;DHT22;5622;50.840;4.948;2022-09-29T00:01:03;8.40;99.90
11136;DHT22;5622;50.840;4.948;2022-09-29T00:03:31;8.40;99.90
11136;DHT22;5622;50.840;4.948;2022-09-29T00:05:58;8.40;99.90
11136;DHT22;5622;50.840;4.948;2022-09-29T00:08:27;8.50;99.90
11136;DHT22;5622;50.840;4.948;2022-09-29T00:10:55;8.50;99.90
11136;DHT22;5622;50.840;4.948;2022-09-29T00:13:22;8.50;99.90
11136;DHT22;5622;50.840;4.948;2022-09-29T00:15:57;8.40;99.90
11136;DHT22;5622;50.840;4.948;2022-09-29T00:18:25;8.40;99.90
11136;DHT22;5622;50.840;4.948;2022-09-29T00:20:59;8.40;99.90
11136;DHT22;5622;50.840;4.948;2022-09-29T00:23:29;8.40;99.90
11136;DHT22;5622;50.840;4.948;2022-09-29T00:26:01;8.40;99.90
11136;DHT22;5622;50.840;4.948;2022-09-29T00:28:29;9.40;99.90
11136;DHT22;5622;50.840;4.948;2022-09-29T00:30:57;8.30;99.90
11136;DHT22;5622;50.840;4.948;2022-09-29T00:33:25;8.30;99.90
11136;DHT22;5622;50.840;4.948;2022-09-29T00:35:56;8.30;99.90
11136;DHT22;5622;50.840;4.948;2022-09-29T00:38:24;8.70;99.90
11136;DHT22;5622;50.840;4.948;2022-09-29T00:40:53;8.40;99.90
11136;DHT22;5622;50.840;4.948;2022-09-29T00:43:22;8.30;99.90
11136;DHT22;5622;50.840;4.948;2022-09-29T00:45:50;8.20;99.90
11136;DHT22;5622;50.840;4.948;2022-09-29T00:48:23;8.20;99.90
11136;DHT22;5622;50.840;4.948;2022-09-29T00:50:53;8.20;99.90
11136;DHT22;5622;50.840;4.948;2022-09-29T00:53:22;8.20;99.90
11136;DHT22;5622;50.840;4.948;2022-09-29T00:55:55;8.10;99.90
11136;DHT22;5622;50.840;4.948;2022-09-29T00:58:29;8.10;99.90
11136;DHT22;5622;50.840;4.948;2022-09-29T01:00:57;8.00;99.90
11136;DHT22;5622;50.840;4.948;2022-09-29T01:03:26;8.10;99.90
11136;DHT22;5622;50.840;4.948;2022-09-29T01:05:56;8.10;99.90
11136;DHT22;5622;50.840;4.948;2022-09-29T01:08:27;8.00;99.90
11136;DHT22;5622;50.840;4.948;2022-09-29T01:11:00;8.00;99.90
11136;DHT22;5622;50.840;4.948;2022-09-29T01:13:28;8.00;99.90
11136;DHT22;5622;50.840;4.948;2022-09-29T01:15:55;8.20;99.90
11136;DHT22;5622;50.840;4.948;2022-09-29T01:18:23;8.00;99.90
11136;DHT22;5622;50.840;4.948;2022-09-29T01:20:54;8.40;99.90
11136;DHT22;5622;50.840;4.948;2022-09-29T01:27:03;7.90;99.90
11136;DHT22;5622;50.840;4.948;2022-09-29T01:29:54;7.90;99.90
11136;DHT22;5622;50.840;4.948;2022-09-29T01:32:39;7.90;99.90
11136;DHT22;5622;50.840;4.948;2022-09-29T01:35:15;7.90;99.90
11136;DHT22;5622;50.840;4.948;2022-09-29T01:37:55;7.90;99.90
11136;DHT22;5622;50.840;4.948;2022-09-29T01:40:28;7.80;99.90
11136;DHT22;5622;50.840;4.948;2022-09-29T01:43:03;7.80;99.90
11136;DHT22;5622;50.840;4.948;2022-09-29T01:45:33;7.80;99.90
11136;DHT22;5622;50.840;4.948;2022-09-29T01:48:04;7.80;99.90
11136;DHT22;5622;50.840;4.948;2022-09-29T01:50:36;7.80;99.90
11136;DHT22;5622;50.840;4.948;2022-09-29T01:53:10;7.80;99.90
11136;DHT22;5622;50.840;4.948;2022-09-29T01:55:43;7.80;99.90
11136;DHT22;5622;50.840;4.948;2022-09-29T01:58:16;7.70;99.90
11136;DHT22;5622;50.840;4.948;2022-09-29T02:00:47;7.80;99.90
11136;DHT22;5622;50.840;4.948;2022-09-29T02:03:20;7.70;99.90
11136;DHT22;5622;50.840;4.948;2022-09-29T02:05:51;7.70;99.90
11136;DHT22;5622;50.840;4.948;2022-09-29T02:08:26;7.60;99.90
11136;DHT22;5622;50.840;4.948;2022-09-29T02:11:02;7.70;99.90
11136;DHT22;5622;50.840;4.948;2022-09-29T02:13:30;7.60;99.90
11136;DHT22;5622;50.840;4.948;2022-09-29T02:15:59;7.70;99.90
11136;DHT22;5622;50.840;4.948;2022-09-29T02:18:31;7.60;99.90
11136;DHT22;5622;50.840;4.948;2022-09-29T02:21:00;7.80;99.90
11136;DHT22;5622;50.840;4.948;2022-09-29T02:23:27;7.60;99.90
11136;DHT22;5622;50.840;4.948;2022-09-29T02:25:56;7.70;99.90
11136;DHT22;5622;50.840;4.948;2022-09-29T02:28:24;7.60;99.90
11136;DHT22;5622;50.840;4.948;2022-09-29T02:30:52;8.00;99.90
11136;DHT22;5622;50.840;4.948;2022-09-29T02:33:20;7.60;99.90
11136;DHT22;5622;50.840;4.948;2022-09-29T02:35:58;7.60;99.90
11136;DHT22;5622;50.840;4.948;2022-09-29T02:38:36;7.60;99.90
11136;DHT22;5622;50.840;4.948;2022-09-29T02:41:15;7.60;99.90
11136;DHT22;5622;50.840;4.948;2022-09-29T02:44:09;7.60;99.90
11136;DHT22;5622;50.840;4.948;2022-09-29T02:46:45;7.60;99.90
11136;DHT22;5622;50.840;4.948;2022-09-29T02:49:32;7.90;99.90
11136;DHT22;5622;50.840;4.948;2022-09-29T02:52:09;7.60;99.90
11136;DHT22;5622;50.840;4.948;2022-09-29T02:54:48;7.50;99.90
11136;DHT22;5622;50.840;4.948;2022-09-29T02:57:24;7.60;99.90
11136;DHT22;5622;50.840;4.948;2022-09-29T02:59:58;7.50;99.90
11136;DHT22;5622;50.840;4.948;2022-09-29T03:02:30;7.80;99.90
11136;DHT22;5622;50.840;4.948;2022-09-29T03:04:57;7.70;99.90
11136;DHT22;5622;50.840;4.948;2022-09-29T03:07:26;7.50;99.90
11136;DHT22;5622;50.840;4.948;2022-09-29T03:09:53;7.70;99.90
11136;DHT22;5622;50.840;4.948;2022-09-29T03:12:20;7.50;99.90
11136;DHT22;5622;50.840;4.948;2022-09-29T03:14:47;7.50;99.90
11136;DHT22;5622;50.840;4.948;2022-09-29T03:17:14;7.70;99.90
11136;DHT22;5622;50.840;4.948;2022-09-29T03:19:41;7.40;99.90
11136;DHT22;5622;50.840;4.948;2022-09-29T03:22:08;7.40;99.90
11136;DHT22;5622;50.840;4.948;2022-09-29T03:24:37;7.70;99.90
11136;DHT22;5622;50.840;4.948;2022-09-29T03:27:04;7.60;99.90
11136;DHT22;5622;50.840;4.948;2022-09-29T03:29:31;7.30;99.90
11136;DHT22;5622;50.840;4.948;2022-09-29T03:31:58;7.30;99.90
11136;DHT22;5622;50.840;4.948;2022-09-29T03:34:25;7.30;99.90
11136;DHT22;5622;50.840;4.948;2022-09-29T03:36:53;7.40;99.90
11136;DHT22;5622;50.840;4.948;2022-09-29T03:39:22;7.30;99.90
11136;DHT22;5622;50.840;4.948;2022-09-29T03:41:51;7.30;99.90
11136;DHT22;5622;50.840;4.948;2022-09-29T03:44:18;7.30;99.90
11136;DHT22;5622;50.840;4.948;2022-09-29T03:46:45;7.30;99.90
11136;DHT22;5622;50.840;4.948;2022-09-29T03:49:13;7.30;99.90
11136;DHT22;5622;50.840;4.948;2022-09-29T03:51:41;7.30;99.90
11136;DHT22;5622;50.840;4.948;2022-09-29T03:54:09;7.30;99.90
11136;DHT22;5622;50.840;4.948;2022-09-29T03:56:37;7.30;99.90
11136;DHT22;5622;50.840;4.948;2022-09-29T03:59:06;7.30;99.90
11136;DHT22;5622;50.840;4.948;2022-09-29T04:01:35;7.20;99.90
11136;DHT22;5622;50.840;4.948;2022-09-29T04:04:03;7.30;99.90
11136;DHT22;5622;50.840;4.948;2022-09-29T04:06:31;7.30;99.90
11136;DHT22;5622;50.840;4.948;2022-09-29T04:08:58;7.30;99.90
11136;DHT22;5622;50.840;4.948;2022-09-29T04:11:25;7.50;99.90
11136;DHT22;5622;50.840;4.948;2022-09-29T04:13:52;7.20;99.90
11136;DHT22;5622;50.840;4.948;2022-09-29T04:16:21;7.20;99.90
11136;DHT22;5622;50.840;4.948;2022-09-29T04:18:48;7.40;99.90
11136;DHT22;5622;50.840;4.948;2022-09-29T04:21:15;7.20;99.90
11136;DHT22;5622;50.840;4.948;2022-09-29T04:23:42;8.20;99.90
11136;DHT22;5622;50.840;4.948;2022-09-29T04:26:09;7.20;99.90
11136;DHT22;5622;50.840;4.948;2022-09-29T04:28:37;7.20;99.90
11136;DHT22;5622;50.840;4.948;2022-09-29T04:31:05;7.10;99.90
11136;DHT22;5622;50.840;4.948;2022-09-29T04:33:33;7.40;99.90
11136;DHT22;5622;50.840;4.948;2022-09-29T04:36:01;7.20;99.90
11136;DHT22;5622;50.840;4.948;2022-09-29T04:38:28;7.00;99.90
11136;DHT22;5622;50.840;4.948;2022-09-29T04:40:55;7.10;99.90
11136;DHT22;5622;50.840;4.948;2022-09-29T04:43:22;7.00;99.90
11136;DHT22;5622;50.840;4.948;2022-09-29T04:45:50;7.40;99.90
11136;DHT22;5622;50.840;4.948;2022-09-29T04:48:17;7.00;99.90
11136;DHT22;5622;50.840;4.948;2022-09-29T04:50:45;6.90;99.90
11136;DHT22;5622;50.840;4.948;2022-09-29T04:53:13;6.90;99.90
11136;DHT22;5622;50.840;4.948;2022-09-29T04:55:40;7.00;99.90
11136;DHT22;5622;50.840;4.948;2022-09-29T04:58:07;7.00;99.90
11136;DHT22;5622;50.840;4.948;2022-09-29T05:00:34;7.10;99.90
11136;DHT22;5622;50.840;4.948;2022-09-29T05:03:01;7.00;99.90
11136;DHT22;5622;50.840;4.948;2022-09-29T05:05:29;7.10;99.90
11136;DHT22;5622;50.840;4.948;2022-09-29T05:07:57;7.10;99.90
11136;DHT22;5622;50.840;4.948;2022-09-29T05:10:28;7.10;99.90
11136;DHT22;5622;50.840;4.948;2022-09-29T05:12:55;7.10;99.90
11136;DHT22;5622;50.840;4.948;2022-09-29T05:15:23;7.20;99.90
11136;DHT22;5622;50.840;4.948;2022-09-29T05:17:50;7.10;99.90
11136;DHT22;5622;50.840;4.948;2022-09-29T05:20:17;7.00;99.90
11136;DHT22;5622;50.840;4.948;2022-09-29T05:22:44;7.10;99.90
11136;DHT22;5622;50.840;4.948;2022-09-29T05:25:13;7.10;99.90
11136;DHT22;5622;50.840;4.948;2022-09-29T05:27:40;7.00;99.90
11136;DHT22;5622;50.840;4.948;2022-09-29T05:30:07;7.10;99.90
11136;DHT22;5622;50.840;4.948;2022-09-29T05:32:35;7.00;99.90
11136;DHT22;5622;50.840;4.948;2022-09-29T05:35:02;7.00;99.90
11136;DHT22;5622;50.840;4.948;2022-09-29T05:37:29;7.00;99.90
11136;DHT22;5622;50.840;4.948;2022-09-29T05:39:56;7.00;99.90
11136;DHT22;5622;50.840;4.948;2022-09-29T05:42:25;7.60;99.90
11136;DHT22;5622;50.840;4.948;2022-09-29T05:44:52;6.90;99.90
11136;DHT22;5622;50.840;4.948;2022-09-29T05:47:19;6.90;99.90
11136;DHT22;5622;50.840;4.948;2022-09-29T05:49:47;6.90;99.90
11136;DHT22;5622;50.840;4.948;2022-09-29T05:52:14;6.90;99.90
11136;DHT22;5622;50.840;4.948;2022-09-29T05:54:41;6.90;99.90
11136;DHT22;5622;50.840;4.948;2022-09-29T05:57:08;7.10;99.90
11136;DHT22;5622;50.840;4.948;2022-09-29T05:59:37;6.90;99.90
11136;DHT22;5622;50.840;4.948;2022-09-29T06:02:04;6.80;99.90
11136;DHT22;5622;50.840;4.948;2022-09-29T06:04:31;6.90;99.90
11136;DHT22;5622;50.840;4.948;2022-09-29T06:06:58;6.90;99.90
11136;DHT22;5622;50.840;4.948;2022-09-29T06:09:25;6.90;99.90
11136;DHT22;5622;50.840;4.948;2022-09-29T06:11:52;7.70;99.90
11136;DHT22;5622;50.840;4.948;2022-09-29T06:14:19;6.80;99.90
11136;DHT22;5622;50.840;4.948;2022-09-29T06:16:48;6.90;99.90
11136;DHT22;5622;50.840;4.948;2022-09-29T06:19:15;7.00;99.90
11136;DHT22;5622;50.840;4.948;2022-09-29T06:21:42;6.90;99.90
11136;DHT22;5622;50.840;4.948;2022-09-29T06:24:10;7.00;99.90
11136;DHT22;5622;50.840;4.948;2022-09-29T06:26:37;7.70;99.90
11136;DHT22;5622;50.840;4.948;2022-09-29T06:29:04;7.00;99.90
11136;DHT22;5622;50.840;4.948;2022-09-29T06:31:31;7.10;99.90
11136;DHT22;5622;50.840;4.948;2022-09-29T06:34:02;7.10;99.90
11136;DHT22;5622;50.840;4.948;2022-09-29T06:36:31;7.20;99.90
11136;DHT22;5622;50.840;4.948;2022-09-29T06:39:17;7.20;99.90
11136;DHT22;5622;50.840;4.948;2022-09-29T06:41:44;7.40;99.90
11136;DHT22;5622;50.840;4.948;2022-09-29T06:44:18;7.30;99.90
11136;DHT22;5622;50.840;4.948;2022-09-29T06:46:46;7.60;99.90
11136;DHT22;5622;50.840;4.948;2022-09-29T06:49:14;7.40;99.90
11136;DHT22;5622;50.840;4.948;2022-09-29T06:51:42;7.40;99.90
11136;DHT22;5622;50.840;4.948;2022-09-29T06:54:09;8.30;99.90
11136;DHT22;5622;50.840;4.948;2022-09-29T06:56:36;7.50;99.90
11136;DHT22;5622;50.840;4.948;2022-09-29T06:59:03;7.60;99.90
11136;DHT22;5622;50.840;4.948;2022-09-29T07:01:31;7.50;99.90
11136;DHT22;5622;50.840;4.948;2022-09-29T07:03:58;7.60;99.90
11136;DHT22;5622;50.840;4.948;2022-09-29T07:06:28;7.60;99.90
11136;DHT22;5622;50.840;4.948;2022-09-29T07:08:56;7.60;99.90
11136;DHT22;5622;50.840;4.948;2022-09-29T07:11:24;7.70;99.90
11136;DHT22;5622;50.840;4.948;2022-09-29T07:13:51;7.70;99.90
11136;DHT22;5622;50.840;4.948;2022-09-29T07:16:19;7.70;99.90
11136;DHT22;5622;50.840;4.948;2022-09-29T07:18:48;7.80;99.90
11136;DHT22;5622;50.840;4.948;2022-09-29T07:21:15;7.80;99.90
11136;DHT22;5622;50.840;4.948;2022-09-29T07:23:45;7.80;99.90
11136;DHT22;5622;50.840;4.948;2022-09-29T07:26:13;7.90;99.90
11136;DHT22;5622;50.840;4.948;2022-09-29T07:28:41;7.90;99.90
11136;DHT22;5622;50.840;4.948;2022-09-29T07:31:10;7.90;99.90
11136;DHT22;5622;50.840;4.948;2022-09-29T07:33:38;8.00;99.90
11136;DHT22;5622;50.840;4.948;2022-09-29T07:36:05;8.00;99.90
11136;DHT22;5622;50.840;4.948;2022-09-29T07:38:33;8.10;99.90
11136;DHT22;5622;50.840;4.948;2022-09-29T07:41:01;8.10;99.90
11136;DHT22;5622;50.840;4.948;2022-09-29T07:43:29;8.20;99.90
11136;DHT22;5622;50.840;4.948;2022-09-29T07:45:56;8.30;99.90
11136;DHT22;5622;50.840;4.948;2022-09-29T07:48:25;8.30;99.90
11136;DHT22;5622;50.840;4.948;2022-09-29T07:50:58;8.50;99.90
11136;DHT22;5622;50.840;4.948;2022-09-29T07:53:25;8.80;99.90
11136;DHT22;5622;50.840;4.948;2022-09-29T07:55:53;9.20;99.90
11136;DHT22;5622;50.840;4.948;2022-09-29T07:58:22;9.50;99.90
11136;DHT22;5622;50.840;4.948;2022-09-29T08:00:53;9.80;99.90
11136;DHT22;5622;50.840;4.948;2022-09-29T08:03:20;10.00;99.90
11136;DHT22;5622;50.840;4.948;2022-09-29T08:05:50;10.20;99.90
11136;DHT22;5622;50.840;4.948;2022-09-29T08:08:17;10.40;99.90
11136;DHT22;5622;50.840;4.948;2022-09-29T08:10:44;10.70;99.90
11136;DHT22;5622;50.840;4.948;2022-09-29T08:13:12;10.80;99.90
11136;DHT22;5622;50.840;4.948;2022-09-29T08:15:41;10.80;99.90
11136;DHT22;5622;50.840;4.948;2022-09-29T08:18:08;10.90;99.90
11136;DHT22;5622;50.840;4.948;2022-09-29T08:20:35;10.90;99.90
11136;DHT22;5622;50.840;4.948;2022-09-29T08:23:02;10.90;99.90
11136;DHT22;5622;50.840;4.948;2022-09-29T08:25:31;10.90;99.90
11136;DHT22;5622;50.840;4.948;2022-09-29T08:28:00;10.90;99.90
11136;DHT22;5622;50.840;4.948;2022-09-29T08:30:27;10.90;99.90
11136;DHT22;5622;50.840;4.948;2022-09-29T08:32:56;11.00;99.90
11136;DHT22;5622;50.840;4.948;2022-09-29T08:35:23;11.10;99.90
11136;DHT22;5622;50.840;4.948;2022-09-29T08:37:52;11.10;99.90
11136;DHT22;5622;50.840;4.948;2022-09-29T08:40:20;11.10;99.90
11136;DHT22;5622;50.840;4.948;2022-09-29T08:42:59;11.10;99.90
11136;DHT22;5622;50.840;4.948;2022-09-29T08:45:31;11.10;99.90
11136;DHT22;5622;50.840;4.948;2022-09-29T08:48:04;11.10;99.90
11136;DHT22;5622;50.840;4.948;2022-09-29T08:50:35;11.20;99.90
11136;DHT22;5622;50.840;4.948;2022-09-29T08:53:07;11.20;99.90
11136;DHT22;5622;50.840;4.948;2022-09-29T08:55:41;11.20;99.90
11136;DHT22;5622;50.840;4.948;2022-09-29T08:58:11;11.20;99.90
11136;DHT22;5622;50.840;4.948;2022-09-29T09:00:42;11.20;99.90
11136;DHT22;5622;50.840;4.948;2022-09-29T09:06:13;11.20;99.90
11136;DHT22;5622;50.840;4.948;2022-09-29T09:08:58;11.20;99.90
11136;DHT22;5622;50.840;4.948;2022-09-29T09:11:36;11.20;99.90
11136;DHT22;5622;50.840;4.948;2022-09-29T09:14:16;11.20;99.90
11136;DHT22;5622;50.840;4.948;2022-09-29T09:16:52;11.20;99.90
11136;DHT22;5622;50.840;4.948;2022-09-29T09:19:40;11.20;99.90
11136;DHT22;5622;50.840;4.948;2022-09-29T09:22:19;11.20;99.90
11136;DHT22;5622;50.840;4.948;2022-09-29T09:24:52;11.30;99.90
11136;DHT22;5622;50.840;4.948;2022-09-29T09:27:25;11.30;99.90
11136;DHT22;5622;50.840;4.948;2022-09-29T09:30:03;11.30;99.90
11136;DHT22;5622;50.840;4.948;2022-09-29T09:32:34;11.30;99.90
11136;DHT22;5622;50.840;4.948;2022-09-29T09:35:18;11.30;99.90
11136;DHT22;5622;50.840;4.948;2022-09-29T09:37:47;11.40;99.90
11136;DHT22;5622;50.840;4.948;2022-09-29T09:40:18;11.40;99.90
11136;DHT22;5622;50.840;4.948;2022-09-29T09:42:52;11.50;99.90
11136;DHT22;5622;50.840;4.948;2022-09-29T09:45:27;11.40;99.90
11136;DHT22;5622;50.840;4.948;2022-09-29T09:48:00;11.50;99.90
11136;DHT22;5622;50.840;4.948;2022-09-29T09:50:32;11.50;99.90
11136;DHT22;5622;50.840;4.948;2022-09-29T09:53:03;11.60;99.90
11136;DHT22;5622;50.840;4.948;2022-09-29T09:55:30;11.60;99.90
11136;DHT22;5622;50.840;4.948;2022-09-29T09:58:23;11.60;99.90
11136;DHT22;5622;50.840;4.948;2022-09-29T10:00:56;11.60;99.90
11136;DHT22;5622;50.840;4.948;2022-09-29T10:03:23;11.70;99.90
11136;DHT22;5622;50.840;4.948;2022-09-29T10:05:54;11.70;99.90
11136;DHT22;5622;50.840;4.948;2022-09-29T10:08:24;11.70;99.90
11136;DHT22;5622;50.840;4.948;2022-09-29T10:10:52;11.70;99.90
11136;DHT22;5622;50.840;4.948;2022-09-29T10:13:19;11.80;99.90
11136;DHT22;5622;50.840;4.948;2022-09-29T10:15:51;11.80;99.90
11136;DHT22;5622;50.840;4.948;2022-09-29T10:18:21;11.90;99.90
11136;DHT22;5622;50.840;4.948;2022-09-29T10:20:49;12.00;99.90
11136;DHT22;5622;50.840;4.948;2022-09-29T10:23:27;12.20;99.90
11136;DHT22;5622;50.840;4.948;2022-09-29T10:26:10;12.40;99.90
11136;DHT22;5622;50.840;4.948;2022-09-29T10:28:43;12.70;99.90
11136;DHT22;5622;50.840;4.948;2022-09-29T10:31:20;12.80;99.90
11136;DHT22;5622;50.840;4.948;2022-09-29T10:33:50;13.10;99.90
11136;DHT22;5622;50.840;4.948;2022-09-29T10:36:19;13.20;99.90
11136;DHT22;5622;50.840;4.948;2022-09-29T10:38:50;13.40;99.90
11136;DHT22;5622;50.840;4.948;2022-09-29T10:41:18;13.60;99.90
11136;DHT22;5622;50.840;4.948;2022-09-29T10:43:46;13.90;99.90
11136;DHT22;5622;50.840;4.948;2022-09-29T10:46:47;14.20;99.90
11136;DHT22;5622;50.840;4.948;2022-09-29T10:49:16;14.40;99.90
11136;DHT22;5622;50.840;4.948;2022-09-29T10:51:53;14.60;99.90
11136;DHT22;5622;50.840;4.948;2022-09-29T10:54:25;14.60;99.90
11136;DHT22;5622;50.840;4.948;2022-09-29T10:56:54;14.50;99.90
11136;DHT22;5622;50.840;4.948;2022-09-29T10:59:23;14.40;99.90
11136;DHT22;5622;50.840;4.948;2022-09-29T11:01:53;14.20;99.90
11136;DHT22;5622;50.840;4.948;2022-09-29T11:04:24;14.10;99.90
11136;DHT22;5622;50.840;4.948;2022-09-29T11:06:52;14.00;99.90
11136;DHT22;5622;50.840;4.948;2022-09-29T11:09:29;13.80;99.90
11136;DHT22;5622;50.840;4.948;2022-09-29T11:12:01;13.70;99.90
11136;DHT22;5622;50.840;4.948;2022-09-29T11:14:30;13.60;99.90
11136;DHT22;5622;50.840;4.948;2022-09-29T11:16:58;13.50;99.90
11136;DHT22;5622;50.840;4.948;2022-09-29T11:19:28;13.50;99.90
11136;DHT22;5622;50.840;4.948;2022-09-29T11:22:19;13.50;99.90
11136;DHT22;5622;50.840;4.948;2022-09-29T11:28:05;13.30;99.90
11136;DHT22;5622;50.840;4.948;2022-09-29T11:30:44;13.20;99.90
11136;DHT22;5622;50.840;4.948;2022-09-29T11:33:23;13.20;99.90
11136;DHT22;5622;50.840;4.948;2022-09-29T11:35:59;13.20;99.90
11136;DHT22;5622;50.840;4.948;2022-09-29T11:38:44;13.20;99.90
11136;DHT22;5622;50.840;4.948;2022-09-29T11:44:10;13.10;99.90
11136;DHT22;5622;50.840;4.948;2022-09-29T11:46:52;13.10;99.90
11136;DHT22;5622;50.840;4.948;2022-09-29T11:49:40;13.00;99.90
11136;DHT22;5622;50.840;4.948;2022-09-29T11:52:26;13.00;99.90
11136;DHT22;5622;50.840;4.948;2022-09-29T11:55:11;13.00;99.90
11136;DHT22;5622;50.840;4.948;2022-09-29T11:57:53;13.10;99.90
11136;DHT22;5622;50.840;4.948;2022-09-29T12:00:30;13.20;99.90
11136;DHT22;5622;50.840;4.948;2022-09-29T12:03:22;13.20;99.90
11136;DHT22;5622;50.840;4.948;2022-09-29T12:06:00;13.30;99.90
11136;DHT22;5622;50.840;4.948;2022-09-29T12:08:42;13.30;99.90
11136;DHT22;5622;50.840;4.948;2022-09-29T12:11:15;13.30;99.90
11136;DHT22;5622;50.840;4.948;2022-09-29T12:13:52;13.20;99.90
11136;DHT22;5622;50.840;4.948;2022-09-29T12:16:25;13.30;99.90
11136;DHT22;5622;50.840;4.948;2022-09-29T12:18:57;13.30;99.90
11136;DHT22;5622;50.840;4.948;2022-09-29T12:21:30;13.30;99.90
11136;DHT22;5622;50.840;4.948;2022-09-29T12:24:01;13.30;99.90
11136;DHT22;5622;50.840;4.948;2022-09-29T12:26:30;13.30;99.90
11136;DHT22;5622;50.840;4.948;2022-09-29T12:29:03;13.30;99.90
11136;DHT22;5622;50.840;4.948;2022-09-29T12:31:33;13.20;99.90
11136;DHT22;5622;50.840;4.948;2022-09-29T12:34:04;13.20;99.90
11136;DHT22;5622;50.840;4.948;2022-09-29T12:36:42;13.20;99.90
11136;DHT22;5622;50.840;4.948;2022-09-29T12:39:34;13.20;99.90
11136;DHT22;5622;50.840;4.948;2022-09-29T12:42:16;13.20;99.90
11136;DHT22;5622;50.840;4.948;2022-09-29T12:44:52;13.20;99.90
11136;DHT22;5622;50.840;4.948;2022-09-29T12:47:33;13.20;99.90
11136;DHT22;5622;50.840;4.948;2022-09-29T12:50:09;13.20;99.90
11136;DHT22;5622;50.840;4.948;2022-09-29T12:52:45;13.20;99.90
11136;DHT22;5622;50.840;4.948;2022-09-29T12:55:18;13.20;99.90
11136;DHT22;5622;50.840;4.948;2022-09-29T12:57:50;13.20;99.90
11136;DHT22;5622;50.840;4.948;2022-09-29T13:00:21;13.30;99.90
11136;DHT22;5622;50.840;4.948;2022-09-29T13:03:17;13.30;99.90
11136;DHT22;5622;50.840;4.948;2022-09-29T13:06:08;13.30;99.90
11136;DHT22;5622;50.840;4.948;2022-09-29T13:08:47;13.30;99.90
11136;DHT22;5622;50.840;4.948;2022-09-29T13:11:32;13.30;99.90
11136;DHT22;5622;50.840;4.948;2022-09-29T13:17:33;13.20;99.90
11136;DHT22;5622;50.840;4.948;2022-09-29T13:20:25;13.30;99.90
11136;DHT22;5622;50.840;4.948;2022-09-29T13:26:26;13.40;99.90
11136;DHT22;5622;50.840;4.948;2022-09-29T13:29:00;13.50;99.90
11136;DHT22;5622;50.840;4.948;2022-09-29T13:31:30;13.50;99.90
11136;DHT22;5622;50.840;4.948;2022-09-29T13:34:05;13.60;99.90
11136;DHT22;5622;50.840;4.948;2022-09-29T13:36:35;13.60;99.90
11136;DHT22;5622;50.840;4.948;2022-09-29T13:39:04;13.60;99.90
11136;DHT22;5622;50.840;4.948;2022-09-29T13:41:34;13.60;99.90
11136;DHT22;5622;50.840;4.948;2022-09-29T13:44:19;13.60;99.90
11136;DHT22;5622;50.840;4.948;2022-09-29T13:46:50;13.60;99.90
11136;DHT22;5622;50.840;4.948;2022-09-29T13:49:27;13.60;99.90
11136;DHT22;5622;50.840;4.948;2022-09-29T13:51:56;13.60;99.90
11136;DHT22;5622;50.840;4.948;2022-09-29T13:54:30;13.60;99.90
11136;DHT22;5622;50.840;4.948;2022-09-29T13:57:18;13.60;99.90
11136;DHT22;5622;50.840;4.948;2022-09-29T14:00:04;13.60;99.90
11136;DHT22;5622;50.840;4.948;2022-09-29T14:02:34;13.50;99.90
11136;DHT22;5622;50.840;4.948;2022-09-29T14:05:04;13.60;99.90
11136;DHT22;5622;50.840;4.948;2022-09-29T14:07:38;13.60;99.90
11136;DHT22;5622;50.840;4.948;2022-09-29T14:10:17;13.60;99.90
11136;DHT22;5622;50.840;4.948;2022-09-29T14:12:52;13.60;99.90
11136;DHT22;5622;50.840;4.948;2022-09-29T14:15:21;13.70;99.90
11136;DHT22;5622;50.840;4.948;2022-09-29T14:17:54;13.70;99.90
11136;DHT22;5622;50.840;4.948;2022-09-29T14:20:26;13.70;99.90
11136;DHT22;5622;50.840;4.948;2022-09-29T14:22:57;13.60;99.90
11136;DHT22;5622;50.840;4.948;2022-09-29T14:28:27;13.50;99.90
11136;DHT22;5622;50.840;4.948;2022-09-29T14:30:59;13.50;99.90
11136;DHT22;5622;50.840;4.948;2022-09-29T14:33:32;13.40;99.90
11136;DHT22;5622;50.840;4.948;2022-09-29T14:36:05;13.40;99.90
11136;DHT22;5622;50.840;4.948;2022-09-29T14:38:36;13.30;99.90
11136;DHT22;5622;50.840;4.948;2022-09-29T14:41:24;13.40;99.90
11136;DHT22;5622;50.840;4.948;2022-09-29T14:43:53;13.30;99.90
11136;DHT22;5622;50.840;4.948;2022-09-29T14:50:13;13.20;99.90
11136;DHT22;5622;50.840;4.948;2022-09-29T14:53:10;13.20;99.90
11136;DHT22;5622;50.840;4.948;2022-09-29T14:55:48;13.20;99.90
11136;DHT22;5622;50.840;4.948;2022-09-29T14:58:38;13.10;99.90
11136;DHT22;5622;50.840;4.948;2022-09-29T15:01:12;13.20;99.90
11136;DHT22;5622;50.840;4.948;2022-09-29T15:03:44;13.10;99.90
11136;DHT22;5622;50.840;4.948;2022-09-29T15:06:15;13.10;99.90
11136;DHT22;5622;50.840;4.948;2022-09-29T15:08:53;13.10;99.90
11136;DHT22;5622;50.840;4.948;2022-09-29T15:11:25;13.10;99.90
11136;DHT22;5622;50.840;4.948;2022-09-29T15:13:53;13.00;99.90
11136;DHT22;5622;50.840;4.948;2022-09-29T15:16:26;13.00;99.90
11136;DHT22;5622;50.840;4.948;2022-09-29T15:19:12;13.00;99.90
11136;DHT22;5622;50.840;4.948;2022-09-29T15:21:46;13.00;99.90
11136;DHT22;5622;50.840;4.948;2022-09-29T15:24:41;13.00;99.90
11136;DHT22;5622;50.840;4.948;2022-09-29T15:27:14;13.00;99.90
11136;DHT22;5622;50.840;4.948;2022-09-29T15:29:45;12.90;99.90
11136;DHT22;5622;50.840;4.948;2022-09-29T15:32:22;12.90;99.90
11136;DHT22;5622;50.840;4.948;2022-09-29T15:34:50;12.90;99.90
11136;DHT22;5622;50.840;4.948;2022-09-29T15:37:18;12.90;99.90
11136;DHT22;5622;50.840;4.948;2022-09-29T15:39:50;12.90;99.90
11136;DHT22;5622;50.840;4.948;2022-09-29T15:42:20;12.90;99.90
11136;DHT22;5622;50.840;4.948;2022-09-29T15:44:53;12.90;99.90
11136;DHT22;5622;50.840;4.948;2022-09-29T15:47:28;12.90;99.90
11136;DHT22;5622;50.840;4.948;2022-09-29T15:50:03;13.50;99.90
11136;DHT22;5622;50.840;4.948;2022-09-29T15:52:30;13.00;99.90
11136;DHT22;5622;50.840;4.948;2022-09-29T15:55:00;13.00;99.90
11136;DHT22;5622;50.840;4.948;2022-09-29T15:57:30;12.90;99.90
11136;DHT22;5622;50.840;4.948;2022-09-29T16:00:41;12.90;99.90
11136;DHT22;5622;50.840;4.948;2022-09-29T16:03:11;13.00;99.90
11136;DHT22;5622;50.840;4.948;2022-09-29T16:05:43;13.00;99.90
11136;DHT22;5622;50.840;4.948;2022-09-29T16:08:17;13.00;99.90
11136;DHT22;5622;50.840;4.948;2022-09-29T16:10:51;13.00;99.90
11136;DHT22;5622;50.840;4.948;2022-09-29T16:13:22;12.90;99.90
11136;DHT22;5622;50.840;4.948;2022-09-29T16:15:50;13.00;99.90
11136;DHT22;5622;50.840;4.948;2022-09-29T16:18:22;12.90;99.90
11136;DHT22;5622;50.840;4.948;2022-09-29T16:20:50;12.90;99.90
11136;DHT22;5622;50.840;4.948;2022-09-29T16:23:21;12.90;99.90
11136;DHT22;5622;50.840;4.948;2022-09-29T16:26:14;12.90;99.90
11136;DHT22;5622;50.840;4.948;2022-09-29T16:29:01;12.90;99.90
11136;DHT22;5622;50.840;4.948;2022-09-29T16:31:29;12.90;99.90
11136;DHT22;5622;50.840;4.948;2022-09-29T16:33:58;12.80;99.90
11136;DHT22;5622;50.840;4.948;2022-09-29T16:36:27;12.80;99.90
11136;DHT22;5622;50.840;4.948;2022-09-29T16:38:59;12.80;99.90
11136;DHT22;5622;50.840;4.948;2022-09-29T16:41:29;12.80;99.90
11136;DHT22;5622;50.840;4.948;2022-09-29T16:44:12;12.80;99.90
11136;DHT22;5622;50.840;4.948;2022-09-29T16:46:45;12.70;99.90
11136;DHT22;5622;50.840;4.948;2022-09-29T16:49:15;12.70;99.90
11136;DHT22;5622;50.840;4.948;2022-09-29T16:51:44;12.70;99.90